createdAt,value
2023-01-19T00:03:10.800Z,92.35
2023-01-19T00:08:15.992Z,92.33
2023-01-19T00:13:15.449Z,92.36
2023-01-19T00:18:15.995Z,92.31
2023-01-19T00:23:16.991Z,92.31
2023-01-19T00:28:19.564Z,92.30
2023-01-19T00:33:19.151Z,92.26
2023-01-19T00:38:18.473Z,92.25
2023-01-19T00:43:17.910Z,92.23
2023-01-19T00:48:17.848Z,92.18
2023-01-19T00:53:18.483Z,92.17
2023-01-19T00:58:18.329Z,92.17
2023-01-19T01:03:18.272Z,92.17
2023-01-19T01:08:17.439Z,92.08
2023-01-19T01:13:21.367Z,92.05
2023-01-19T01:18:21.416Z,91.98
2023-01-19T01:23:23.162Z,91.80
2023-01-19T01:28:23.343Z,91.80
2023-01-19T01:33:40.802Z,91.82
2023-01-19T01:38:42.631Z,91.82
2023-01-19T01:44:08.484Z,91.80
2023-01-19T01:49:14.726Z,91.80
2023-01-19T01:54:22.888Z,91.76
2023-01-19T01:59:30.021Z,91.74
2023-01-19T02:04:29.655Z,91.71
2023-01-19T02:09:48.707Z,91.71
2023-01-19T02:14:47.972Z,91.70
2023-01-19T02:19:48.791Z,91.69
2023-01-19T02:24:50.023Z,91.70
2023-01-19T02:29:49.427Z,91.68
2023-01-19T02:34:48.748Z,91.70
2023-01-19T02:39:54.816Z,91.69
2023-01-19T02:44:58.229Z,91.68
2023-01-19T02:50:01.975Z,91.69
2023-01-19T02:55:13.310Z,91.69
2023-01-19T03:00:28.307Z,91.68
2023-01-19T03:05:44.164Z,91.68
2023-01-19T03:10:55.355Z,91.67
2023-01-19T03:16:03.457Z,91.66
2023-01-19T03:21:08.993Z,91.64
2023-01-19T03:26:13.428Z,91.62
2023-01-19T03:31:18.966Z,91.60
2023-01-19T03:36:27.127Z,91.58
2023-01-19T03:41:30.375Z,91.56
2023-01-19T03:46:32.449Z,91.54
2023-01-19T03:51:36.935Z,91.52
2023-01-19T03:56:36.784Z,91.49
2023-01-19T04:01:38.195Z,91.47
2023-01-19T04:06:41.440Z,91.45
2023-01-19T04:11:43.587Z,91.42
2023-01-19T04:16:42.854Z,91.39
2023-01-19T04:21:42.881Z,91.37
2023-01-19T04:26:42.146Z,91.36
2023-01-19T04:31:42.365Z,91.35
2023-01-19T04:36:45.634Z,91.33
2023-01-19T04:41:45.515Z,91.33
2023-01-19T04:46:45.297Z,91.32
2023-01-19T04:51:45.230Z,91.31
2023-01-19T04:56:48.094Z,91.28
2023-01-19T05:01:49.545Z,91.21
2023-01-19T05:06:48.698Z,91.21
2023-01-19T05:11:48.229Z,91.23
2023-01-19T05:16:47.715Z,91.22
2023-01-19T05:21:46.616Z,91.24
2023-01-19T05:26:48.708Z,91.25
2023-01-19T05:31:48.386Z,91.26
2023-01-19T05:36:50.462Z,91.25
2023-01-19T05:41:50.244Z,91.26
2023-01-19T05:46:49.715Z,91.26
2023-01-19T05:51:48.998Z,91.26
2023-01-19T05:56:48.062Z,91.26
2023-01-19T06:01:47.457Z,91.26
2023-01-19T06:06:48.613Z,91.27
2023-01-19T06:11:48.876Z,91.25
2023-01-19T06:16:51.040Z,91.24
2023-01-19T06:21:53.231Z,91.24
2023-01-19T06:26:52.952Z,91.23
2023-01-19T06:31:53.136Z,91.22
2023-01-19T06:36:54.403Z,91.25
2023-01-19T06:41:53.787Z,91.22
2023-01-19T06:46:53.709Z,91.22
2023-01-19T06:52:17.751Z,91.21
2023-01-19T06:57:17.388Z,91.21
2023-01-19T07:02:27.917Z,91.21
2023-01-19T07:07:28.555Z,91.20
2023-01-19T07:12:27.584Z,91.20
2023-01-19T07:17:27.245Z,91.20
2023-01-19T07:22:26.577Z,91.19
2023-01-19T07:27:27.780Z,91.18
2023-01-19T07:32:27.621Z,91.19
2023-01-19T07:37:27.070Z,91.19
2023-01-19T07:42:27.017Z,91.19
2023-01-19T07:47:26.204Z,91.20
2023-01-19T07:52:25.534Z,91.20
2023-01-19T07:57:25.429Z,91.21
2023-01-19T08:02:26.109Z,91.20
2023-01-19T08:07:25.390Z,91.18
2023-01-19T08:12:24.884Z,91.18
2023-01-19T08:17:24.856Z,91.18
2023-01-19T08:22:24.885Z,91.17
2023-01-19T08:27:24.649Z,91.17
2023-01-19T08:32:24.059Z,91.15
2023-01-19T08:37:22.787Z,91.14
2023-01-19T08:42:22.262Z,91.13
2023-01-19T08:47:22.227Z,91.10
2023-01-19T08:52:21.350Z,91.09
2023-01-19T08:57:20.755Z,91.07
2023-01-19T09:02:20.645Z,91.06
2023-01-19T09:07:21.724Z,91.02
2023-01-19T09:12:20.549Z,91.00
2023-01-19T09:17:21.148Z,90.97
2023-01-19T09:22:21.035Z,90.95
2023-01-19T09:27:21.269Z,90.92
2023-01-19T09:32:20.756Z,90.92
2023-01-19T09:37:20.372Z,90.89
2023-01-19T09:42:31.973Z,90.87
2023-01-19T09:47:36.153Z,90.84
2023-01-19T09:52:43.801Z,90.79
2023-01-19T09:57:43.392Z,90.75
2023-01-19T10:02:53.178Z,90.67
2023-01-19T10:08:17.880Z,90.63
2023-01-19T10:13:34.266Z,90.59
2023-01-19T10:18:47.960Z,90.55
2023-01-19T10:23:54.928Z,90.53
2023-01-19T10:28:57.732Z,90.51
2023-01-19T10:33:57.921Z,90.46
2023-01-19T10:38:56.870Z,90.45
2023-01-19T10:44:05.690Z,90.39
2023-01-19T10:49:05.101Z,90.36
2023-01-19T10:54:13.416Z,90.35
2023-01-19T10:59:39.003Z,90.33
2023-01-19T11:04:40.102Z,90.32
2023-01-19T11:09:40.484Z,90.31
2023-01-19T11:14:39.758Z,90.29
2023-01-19T11:19:40.903Z,90.24
2023-01-19T11:24:44.145Z,90.22
2023-01-19T11:29:47.963Z,90.19
2023-01-19T11:34:47.376Z,90.16
2023-01-19T11:39:54.680Z,90.12
2023-01-19T11:45:15.000Z,90.10
2023-01-19T11:50:26.799Z,90.09
2023-01-19T11:55:37.437Z,90.08
2023-01-19T12:00:44.251Z,90.05
2023-01-19T12:05:49.346Z,90.02
2023-01-19T12:10:52.790Z,90.00
2023-01-19T12:15:57.989Z,89.92
2023-01-19T12:21:03.905Z,89.81
2023-01-19T12:26:29.696Z,89.78
2023-01-19T12:31:29.018Z,89.76
2023-01-19T12:36:42.297Z,89.75
2023-01-19T12:41:44.107Z,89.70
2023-01-19T12:46:46.426Z,89.68
2023-01-19T12:51:48.347Z,89.62
2023-01-19T12:56:47.157Z,89.56
2023-01-19T13:02:06.540Z,89.57
2023-01-19T13:07:18.092Z,89.53
2023-01-19T13:12:29.547Z,89.51
2023-01-19T13:17:35.882Z,89.46
2023-01-19T13:23:27.578Z,89.42
2023-01-19T13:28:37.475Z,89.36
2023-01-19T13:33:50.253Z,89.29
2023-01-19T13:38:52.159Z,89.23
2023-01-19T13:43:58.724Z,89.19
2023-01-19T13:49:04.548Z,89.13
2023-01-19T13:54:03.948Z,89.07
2023-01-19T13:59:19.260Z,89.00
2023-01-19T14:04:36.617Z,88.94
2023-01-19T14:09:36.628Z,88.91
2023-01-19T14:14:36.159Z,88.86
2023-01-19T14:19:52.546Z,88.84
2023-01-19T14:24:52.323Z,88.83
2023-01-19T14:29:55.010Z,88.76
2023-01-19T14:35:13.975Z,88.68
2023-01-19T14:40:24.575Z,88.68
2023-01-19T14:45:30.427Z,88.65
2023-01-19T14:50:35.259Z,88.61
2023-01-19T14:55:46.819Z,88.60
2023-01-19T15:00:47.922Z,88.58
2023-01-19T15:05:50.675Z,88.56
2023-01-19T15:10:50.886Z,88.57
2023-01-19T15:15:51.641Z,88.57
2023-01-19T15:20:51.128Z,88.58
2023-01-19T15:25:51.310Z,88.59
2023-01-19T15:30:51.071Z,88.60
2023-01-19T15:35:51.424Z,88.61
2023-01-19T15:40:53.038Z,88.62
2023-01-19T15:46:02.153Z,88.64
2023-01-19T15:51:02.044Z,88.65
2023-01-19T15:56:01.856Z,88.66
2023-01-19T16:01:02.383Z,88.67
2023-01-19T16:06:05.372Z,88.64
2023-01-19T16:11:10.022Z,88.63
2023-01-19T16:16:15.201Z,88.64
2023-01-19T16:21:16.315Z,88.63
2023-01-19T16:26:40.638Z,88.62
2023-01-19T16:31:42.046Z,88.60
2023-01-19T16:36:43.969Z,88.56
2023-01-19T16:41:45.219Z,88.50
2023-01-19T16:46:47.560Z,88.48
2023-01-19T16:51:47.840Z,88.47
2023-01-19T16:56:48.413Z,88.43
2023-01-19T17:01:50.999Z,88.43
2023-01-19T17:06:51.577Z,88.43
2023-01-19T17:11:51.713Z,88.41
2023-01-19T17:16:51.833Z,88.42
2023-01-19T17:21:52.536Z,88.42
2023-01-19T17:26:53.109Z,88.39
2023-01-19T17:31:54.641Z,88.41
2023-01-19T17:37:03.244Z,88.41
2023-01-19T17:42:04.847Z,88.45
2023-01-19T17:47:08.807Z,88.49
2023-01-19T17:52:11.947Z,88.52
2023-01-19T17:57:14.955Z,88.55
2023-01-19T18:02:16.012Z,88.57
2023-01-19T18:07:15.623Z,88.58
2023-01-19T18:12:16.185Z,88.61
2023-01-19T18:17:15.778Z,88.63
2023-01-19T18:22:15.841Z,88.64
2023-01-19T18:27:16.747Z,88.69
2023-01-19T18:32:16.433Z,88.75
2023-01-19T18:37:16.694Z,88.79
2023-01-19T18:42:16.792Z,88.88
2023-01-19T18:47:16.115Z,88.89
2023-01-19T18:52:16.113Z,88.94
2023-01-19T18:57:18.066Z,88.99
2023-01-19T19:02:19.402Z,89.00
2023-01-19T19:07:18.572Z,89.03
2023-01-19T19:12:17.615Z,89.05
2023-01-19T19:17:17.995Z,89.09
2023-01-19T19:22:18.532Z,89.11
2023-01-19T19:27:18.851Z,89.08
2023-01-19T19:32:20.693Z,89.08
2023-01-19T19:37:20.509Z,89.11
2023-01-19T19:42:20.170Z,89.12
2023-01-19T19:47:19.868Z,89.13
2023-01-19T19:52:19.724Z,89.08
2023-01-19T19:57:20.128Z,89.12
2023-01-19T20:02:19.726Z,89.17
2023-01-19T20:07:19.249Z,89.18
2023-01-19T20:12:19.215Z,89.21
2023-01-19T20:17:19.318Z,89.35
2023-01-19T20:22:20.536Z,89.37
2023-01-19T20:27:21.186Z,89.40
2023-01-19T20:32:23.726Z,89.41
2023-01-19T20:37:27.570Z,89.44
2023-01-19T20:42:27.260Z,89.45
2023-01-19T20:47:26.602Z,89.37
2023-01-19T20:52:29.996Z,89.31
2023-01-19T20:57:29.499Z,89.34
2023-01-19T21:02:28.723Z,89.39
2023-01-19T21:07:28.317Z,89.46
2023-01-19T21:12:27.129Z,89.43
2023-01-19T21:17:27.719Z,89.49
2023-01-19T21:22:27.425Z,89.49
2023-01-19T21:27:27.472Z,89.58
2023-01-19T21:32:27.309Z,89.68
2023-01-19T21:37:27.419Z,89.75
2023-01-19T21:42:26.653Z,89.78
2023-01-19T21:47:25.969Z,89.82
2023-01-19T21:52:25.327Z,89.85
2023-01-19T21:57:24.438Z,89.88
2023-01-19T22:02:37.688Z,89.95
2023-01-19T22:07:37.519Z,90.02
2023-01-19T22:12:39.268Z,90.04
2023-01-19T22:17:38.982Z,90.09
2023-01-19T22:22:39.074Z,90.11
2023-01-19T22:27:38.899Z,90.12
2023-01-19T22:32:37.728Z,90.18
2023-01-19T22:37:40.787Z,90.21
2023-01-19T22:42:40.767Z,90.25
2023-01-19T22:47:40.163Z,90.28
2023-01-19T22:52:39.588Z,90.32
2023-01-19T22:57:39.806Z,90.31
2023-01-19T23:02:41.447Z,90.35
2023-01-19T23:07:40.756Z,90.35
2023-01-19T23:12:39.777Z,90.36
2023-01-19T23:17:39.291Z,90.41
2023-01-19T23:22:39.395Z,90.43
2023-01-19T23:27:38.750Z,90.45
2023-01-19T23:32:38.803Z,90.46
2023-01-19T23:37:38.642Z,90.51
2023-01-19T23:42:37.763Z,90.59
2023-01-19T23:47:38.403Z,90.56
2023-01-19T23:52:37.576Z,90.60
2023-01-19T23:57:36.882Z,90.61
